Time;durP1;ratioP1;P1;durP2;ratioP2;P2;SDS_P1;SDS_P2;PMS_P1;PMS_P2;Temp;Humidity;BMP_temperature;BMP_pressure;BME280_temperature;BME280_humidity;BME280_pressure;Samples;Min_cycle;Max_cycle;Signal;HPM_P1;HPM_P2
2022/09/05 00:03:00;;;;;;;3.30;3.00;;;;;;;11.08;100.00;98051.40;110031;1247;71584;-66
2022/09/05 00:06:05;;;;;;;4.60;3.00;;;;;;;11.09;99.95;98055.88;109998;1247;68575;-66
2022/09/05 00:09:04;;;;;;;4.60;3.90;;;;;;;11.10;99.20;98052.80;110040;1247;71499;-66
2022/09/05 00:12:00;;;;;;;4.80;3.50;;;;;;;11.14;99.13;98051.66;110001;1247;58912;-65
2022/09/05 00:15:01;;;;;;;5.00;3.30;;;;;;;11.18;100.00;98052.11;110102;1247;58840;-66
2022/09/05 00:18:46;;;;;;;4.00;3.00;;;;;;;11.24;100.00;98047.55;110003;1247;71661;-65
2022/09/05 00:22:01;;;;;;;2.80;2.40;;;;;;;11.29;100.00;98043.54;110065;1247;69223;-65
2022/09/05 00:25:30;;;;;;;3.00;2.70;;;;;;;11.34;99.79;98044.96;110020;1247;71333;-66
2022/09/05 00:28:36;;;;;;;3.10;2.80;;;;;;;11.35;95.13;98038.61;108284;1247;2169770;-66
2022/09/05 00:31:29;;;;;;;3.30;2.80;;;;;;;11.35;93.84;98034.27;110068;1247;58952;-67
2022/09/05 00:34:38;;;;;;;3.10;2.40;;;;;;;11.34;93.44;98036.42;110079;1247;71689;-65
2022/09/05 00:37:38;;;;;;;3.20;2.50;;;;;;;11.34;92.95;98032.96;110093;1247;68506;-66
2022/09/05 00:40:41;;;;;;;3.10;2.60;;;;;;;11.35;92.76;98030.95;110105;1247;70242;-65
2022/09/05 00:43:36;;;;;;;3.20;2.70;;;;;;;11.35;93.09;98032.85;110022;1247;58943;-66
2022/09/05 00:46:32;;;;;;;3.40;3.10;;;;;;;11.39;95.98;98035.37;110037;1247;59315;-65
2022/09/05 00:49:38;;;;;;;5.90;3.20;;;;;;;11.44;97.73;98040.13;110068;1247;70544;-67
2022/09/05 00:52:49;;;;;;;3.40;2.90;;;;;;;11.48;99.23;98034.79;109960;1250;69768;-65
2022/09/05 00:56:30;;;;;;;5.80;3.10;;;;;;;11.52;99.19;98039.08;110002;1247;70320;-66
2022/09/05 00:59:42;;;;;;;4.10;3.40;;;;;;;11.59;100.00;98039.45;110063;1247;58976;-66
2022/09/05 01:03:21;;;;;;;4.20;3.50;;;;;;;11.66;99.87;98039.31;109987;1247;58887;-66
2022/09/05 01:06:26;;;;;;;4.30;3.10;;;;;;;11.76;100.00;98040.61;109984;1248;69819;-66
2022/09/05 01:09:31;;;;;;;4.50;3.30;;;;;;;11.83;100.00;98042.29;110012;1247;70167;-66
2022/09/05 01:12:36;;;;;;;4.30;3.00;;;;;;;11.88;100.00;98048.35;110070;1247;70324;-65
2022/09/05 01:15:33;;;;;;;4.20;3.40;;;;;;;11.94;100.00;98048.17;109991;1247;58889;-65
2022/09/05 01:19:04;;;;;;;4.00;2.70;;;;;;;12.00;100.00;98044.44;110014;1247;58862;-67
2022/09/05 01:22:16;;;;;;;3.50;2.80;;;;;;;12.03;98.30;98040.05;109904;1248;69962;-64
2022/09/05 01:25:08;;;;;;;5.00;2.80;;;;;;;12.03;96.12;98038.66;110012;1247;68775;-66
2022/09/05 01:28:04;;;;;;;3.30;2.30;;;;;;;12.01;94.91;98035.80;109986;1247;70238;-67
2022/09/05 01:31:49;;;;;;;5.10;3.00;;;;;;;11.98;95.33;98041.08;110004;1247;58925;-66
2022/09/05 01:35:08;;;;;;;3.10;2.10;;;;;;;11.96;97.71;98042.54;109952;1248;58899;-66
2022/09/05 01:38:18;;;;;;;3.10;2.30;;;;;;;11.95;97.70;98038.27;110002;1247;69875;-65
2022/09/05 01:41:27;;;;;;;4.20;2.60;;;;;;;11.97;99.00;98043.39;110080;1247;68436;-65
2022/09/05 01:44:54;;;;;;;3.60;2.70;;;;;;;11.97;98.97;98038.52;110024;1247;70220;-65
2022/09/05 01:48:29;;;;;;;2.60;2.10;;;;;;;11.96;98.75;98042.04;109995;1248;58952;-65
2022/09/05 01:51:40;;;;;;;3.10;2.40;;;;;;;11.96;97.76;98042.89;110005;1247;58889;-66
2022/09/05 01:55:02;;;;;;;2.90;2.40;;;;;;;11.96;98.80;98043.98;109995;1247;70537;-67
2022/09/05 01:58:05;;;;;;;3.80;2.20;;;;;;;11.94;98.61;98044.98;109993;1247;70342;-65
2022/09/05 02:01:17;;;;;;;4.70;2.90;;;;;;;11.91;98.95;98045.23;109950;1247;70669;-65
2022/09/05 02:04:17;;;;;;;3.20;2.50;;;;;;;11.85;98.98;98042.98;109984;1247;58955;-65
2022/09/05 02:07:28;;;;;;;4.10;3.00;;;;;;;11.81;98.62;98040.48;110009;1247;58912;-64
2022/09/05 02:10:38;;;;;;;4.70;2.80;;;;;;;11.71;97.11;98038.83;110014;1247;71600;-66
2022/09/05 02:13:35;;;;;;;3.30;2.80;;;;;;;11.62;97.16;98038.19;110049;1247;69717;-65
2022/09/05 02:16:45;;;;;;;4.10;2.60;;;;;;;11.55;97.37;98041.13;110051;1247;68563;-65
2022/09/05 02:20:00;;;;;;;4.60;3.10;;;;;;;11.47;99.09;98040.28;110090;1247;58932;-65
2022/09/05 02:23:01;;;;;;;2.50;2.30;;;;;;;11.39;99.54;98037.30;109989;1247;58946;-67
2022/09/05 02:26:25;;;;;;;2.50;2.30;;;;;;;11.32;98.23;98032.72;109974;1247;70398;-64
2022/09/05 02:29:12;;;;;;;3.10;2.10;;;;;;;11.27;98.35;98032.70;110008;1247;70211;-65
2022/09/05 02:32:28;;;;;;;3.70;2.50;;;;;;;11.20;99.22;98034.34;109977;1247;68619;-67
2022/09/05 02:35:48;;;;;;;2.70;2.30;;;;;;;11.15;99.35;98034.70;109991;1247;58913;-64
2022/09/05 02:38:59;;;;;;;3.90;2.80;;;;;;;11.08;99.99;98033.74;109783;1247;58885;-66
2022/09/05 02:42:16;;;;;;;3.20;2.50;;;;;;;11.04;99.59;98030.69;110133;1247;70582;-65
2022/09/05 02:46:00;;;;;;;3.30;2.00;;;;;;;11.01;100.00;98026.88;110010;1247;70165;-65
2022/09/05 02:48:50;;;;;;;2.70;2.00;;;;;;;10.96;98.84;98030.90;110006;1247;70252;-66
2022/09/05 02:51:37;;;;;;;2.80;2.10;;;;;;;10.93;99.89;98031.27;109959;1247;58916;-65
2022/09/05 02:54:48;;;;;;;2.70;2.30;;;;;;;10.89;100.00;98034.30;110010;1247;58894;-66
2022/09/05 02:58:24;;;;;;;2.80;2.20;;;;;;;10.85;100.00;98032.83;110053;1247;69874;-65
2022/09/05 03:01:33;;;;;;;2.90;2.30;;;;;;;10.81;100.00;98039.65;110011;1247;68736;-68
2022/09/05 03:04:52;;;;;;;4.20;2.10;;;;;;;10.78;100.00;98038.48;110016;1247;70251;-65
2022/09/05 03:07:55;;;;;;;2.40;2.10;;;;;;;10.75;100.00;98037.11;109739;1249;58901;-66
2022/09/05 03:10:48;;;;;;;3.10;2.60;;;;;;;10.73;100.00;98038.85;110061;1247;58957;-67
2022/09/05 03:13:48;;;;;;;2.80;2.30;;;;;;;10.70;100.00;98040.19;110010;1247;69940;-67
2022/09/05 03:16:57;;;;;;;;;;;;;;;10.67;99.74;98040.17;109986;1247;70179;-65
2022/09/05 03:19:53;;;;;;;2.90;2.40;;;;;;;10.68;95.79;98040.88;110013;1247;70278;-64
2022/09/05 03:23:26;;;;;;;3.10;2.40;;;;;;;10.69;95.64;98042.36;110083;1247;58954;-65
2022/09/05 03:26:55;;;;;;;4.50;2.20;;;;;;;10.69;94.90;98043.95;110025;1247;58951;-67
2022/09/05 03:30:10;;;;;;;2.50;2.10;;;;;;;10.66;95.15;98042.36;110063;1247;71564;-66
2022/09/05 03:33:21;;;;;;;3.40;2.70;;;;;;;10.64;98.43;98049.98;110069;1247;68507;-67
2022/09/05 03:36:28;;;;;;;4.40;3.00;;;;;;;10.61;99.79;98046.37;110105;1247;68552;-65
2022/09/05 03:39:52;;;;;;;4.70;3.10;;;;;;;10.57;100.00;98052.70;110083;1247;58954;-65
2022/09/05 03:43:17;;;;;;;3.20;2.40;;;;;;;10.52;99.88;98056.35;110191;1247;58799;-65
2022/09/05 03:46:40;;;;;;;4.60;2.70;;;;;;;10.50;96.92;98059.58;109603;1250;71592;-65
2022/09/05 03:49:53;;;;;;;2.60;1.90;;;;;;;10.50;96.98;98065.48;110032;1247;69737;-66
2022/09/05 03:53:13;;;;;;;4.30;2.30;;;;;;;10.50;97.21;98072.52;110057;1247;69275;-64
2022/09/05 03:56:41;;;;;;;4.90;2.40;;;;;;;10.49;98.38;98076.60;110103;1247;58979;-66
2022/09/05 04:00:21;;;;;;;3.30;1.90;;;;;;;10.46;98.05;98075.70;110037;1247;58798;-64
2022/09/05 04:03:19;;;;;;;3.60;2.40;;;;;;;10.45;96.91;98076.30;110031;1247;69962;-64
2022/09/05 04:06:32;;;;;;;4.60;2.80;;;;;;;10.45;97.93;98073.84;110070;1247;68595;-66
2022/09/05 04:09:47;;;;;;;3.20;2.70;;;;;;;10.44;98.93;98073.92;110004;1247;68866;-64
2022/09/05 04:12:53;;;;;;;4.20;3.00;;;;;;;10.42;99.48;98079.80;110088;1247;58955;-64
2022/09/05 04:15:45;;;;;;;3.70;2.90;;;;;;;10.44;99.69;98078.44;109698;1248;58874;-63
2022/09/05 04:18:47;;;;;;;4.00;2.80;;;;;;;10.49;100.00;98079.73;110054;1247;69808;-66
2022/09/05 04:21:54;;;;;;;4.90;2.60;;;;;;;10.63;100.00;98086.86;110027;1247;70176;-66
2022/09/05 04:24:58;;;;;;;5.30;3.40;;;;;;;10.89;100.00;98088.02;109987;1247;70295;-65
2022/09/05 04:27:52;;;;;;;3.40;2.40;;;;;;;11.18;100.00;98092.59;109985;1247;58921;-65
2022/09/05 04:30:54;;;;;;;2.60;2.40;;;;;;;11.42;99.91;98094.90;110034;1247;58965;-67
2022/09/05 04:34:18;;;;;;;1.90;1.70;;;;;;;11.65;99.77;98098.27;110103;1247;69836;-66
2022/09/05 04:37:08;;;;;;;2.60;2.20;;;;;;;11.98;98.80;98096.27;110100;1247;71367;-66
2022/09/05 04:39:54;;;;;;;3.80;1.80;;;;;;;12.29;97.81;98095.39;110056;1247;70290;-64
2022/09/05 04:42:41;;;;;;;1.60;1.50;;;;;;;12.56;96.39;98094.36;110155;1247;58918;-65
2022/09/05 04:45:33;;;;;;;2.50;1.80;;;;;;;12.83;95.52;98091.62;109961;1250;59338;-66
2022/09/05 04:48:27;;;;;;;3.00;2.10;;;;;;;13.05;93.97;98087.23;110023;1247;71562;-66
2022/09/05 04:51:48;;;;;;;3.80;2.30;;;;;;;13.20;91.87;98099.27;110129;1247;68591;-65
2022/09/05 04:55:07;;;;;;;2.40;2.00;;;;;;;13.29;92.17;98104.60;110067;1247;70296;-66
2022/09/05 04:58:06;;;;;;;5.20;2.30;;;;;;;13.38;92.12;98108.65;109872;1247;58957;-65
2022/09/05 05:01:03;;;;;;;3.80;2.40;;;;;;;13.40;92.03;98111.48;109988;1247;58883;-65
2022/09/05 05:04:15;;;;;;;4.20;2.20;;;;;;;13.49;91.90;98110.61;110141;1247;71517;-66
2022/09/05 05:07:29;;;;;;;3.90;2.60;;;;;;;13.53;91.23;98116.09;110082;1246;70215;-65
2022/09/05 05:10:26;;;;;;;3.20;2.40;;;;;;;13.54;90.94;98117.27;110152;1246;69000;-65
2022/09/05 05:13:52;;;;;;;2.60;2.40;;;;;;;13.54;91.06;98119.77;110061;1247;58872;-65
2022/09/05 05:17:08;;;;;;;2.70;2.30;;;;;;;13.59;89.92;98120.90;110105;1247;59283;-66
2022/09/05 05:20:30;;;;;;;2.60;2.20;;;;;;;13.61;89.61;98125.68;110006;1247;70317;-65
2022/09/05 05:23:42;;;;;;;3.00;2.20;;;;;;;13.67;89.30;98131.21;110088;1247;68478;-66
2022/09/05 05:26:51;;;;;;;3.10;2.50;;;;;;;13.71;90.74;98129.65;110041;1247;68582;-69
2022/09/05 05:29:47;;;;;;;3.30;2.70;;;;;;;13.79;91.53;98133.64;110017;1248;58918;-66
2022/09/05 05:32:41;;;;;;;3.80;2.80;;;;;;;13.88;91.49;98132.59;110015;1247;58944;-66
2022/09/05 05:35:32;;;;;;;4.00;1.90;;;;;;;14.03;91.07;98132.90;110177;1247;72578;-64
2022/09/05 05:38:52;;;;;;;3.70;2.40;;;;;;;14.37;90.68;98136.62;110095;1247;68609;-66
2022/09/05 05:41:57;;;;;;;3.50;2.10;;;;;;;14.87;89.33;98137.27;110161;1247;70239;-65
2022/09/05 05:45:29;;;;;;;2.60;2.20;;;;;;;15.38;89.56;98143.92;110070;1247;58947;-66
2022/09/05 05:48:19;;;;;;;2.10;1.90;;;;;;;15.98;86.85;98142.92;110043;1247;59405;-66
2022/09/05 05:51:30;;;;;;;3.90;2.30;;;;;;;16.52;83.73;98142.95;110046;1247;71563;-66
2022/09/05 05:54:50;;;;;;;3.30;2.10;;;;;;;16.98;80.16;98142.13;109977;1247;70151;-66
2022/09/05 05:58:23;;;;;;;5.30;2.70;;;;;;;17.40;79.12;98134.36;109973;1247;70335;-65
2022/09/05 06:01:24;;;;;;;2.60;1.70;;;;;;;17.71;72.23;98138.98;109847;1247;58847;-65
2022/09/05 06:05:12;;;;;;;3.40;1.80;;;;;;;18.23;73.07;98141.86;110065;1247;59270;-67
2022/09/05 06:08:26;;;;;;;3.70;2.80;;;;;;;18.68;71.76;98145.83;110001;1247;69961;-67
2022/09/05 06:12:10;;;;;;;3.80;1.90;;;;;;;19.00;68.42;98148.80;110058;1247;70648;-67
2022/09/05 06:15:40;;;;;;;2.50;1.90;;;;;;;19.47;64.58;98152.55;110061;1247;69039;-68
2022/09/05 06:18:38;;;;;;;1.80;1.60;;;;;;;19.95;65.45;98156.65;110049;1247;58963;-67
2022/09/05 06:21:51;;;;;;;1.80;1.60;;;;;;;20.30;63.68;98160.08;110049;1247;58853;-69
2022/09/05 06:25:15;;;;;;;2.80;1.80;;;;;;;20.83;61.72;98157.52;110113;1248;69883;-68
2022/09/05 06:28:29;;;;;;;2.60;2.00;;;;;;;21.19;61.82;98156.22;110075;1247;69468;-69
2022/09/05 06:31:23;;;;;;;3.00;1.60;;;;;;;21.59;63.49;98156.61;110099;1247;70280;-69
2022/09/05 06:34:20;;;;;;;2.10;1.60;;;;;;;21.92;61.00;98157.59;110082;1247;58874;-70
2022/09/05 06:37:49;;;;;;;2.60;1.90;;;;;;;21.94;57.81;98163.34;110187;1247;58882;-70
2022/09/05 06:41:16;;;;;;;2.80;1.90;;;;;;;22.10;57.51;98161.38;110058;1245;71651;-70
2022/09/05 06:44:24;;;;;;;2.70;2.10;;;;;;;22.13;55.09;98160.02;109966;1247;71405;-69
2022/09/05 06:47:18;;;;;;;3.20;2.50;;;;;;;22.13;54.37;98163.84;109930;1247;69888;-70
2022/09/05 06:50:28;;;;;;;2.60;2.30;;;;;;;22.07;53.75;98168.67;109977;1247;58963;-69
2022/09/05 06:53:42;;;;;;;2.60;2.10;;;;;;;22.00;52.83;98170.51;110116;1248;58861;-68
2022/09/05 06:56:33;;;;;;;3.40;2.40;;;;;;;22.04;53.66;98176.17;110055;1247;69829;-69
2022/09/05 06:59:38;;;;;;;3.10;2.20;;;;;;;21.79;53.46;98178.99;110048;1247;68845;-69
2022/09/05 07:02:49;;;;;;;3.10;2.10;;;;;;;21.40;54.45;98185.95;109902;1248;70257;-69
2022/09/05 07:06:02;;;;;;;3.20;2.60;;;;;;;21.59;54.62;98188.77;110013;1247;59253;-69
2022/09/05 07:09:16;;;;;;;3.80;2.80;;;;;;;21.87;53.74;98185.03;109923;1247;58971;-69
2022/09/05 07:12:37;;;;;;;3.40;2.40;;;;;;;22.06;53.16;98183.60;110019;1247;71570;-69
2022/09/05 07:15:34;;;;;;;2.40;2.20;;;;;;;22.63;52.68;98188.56;110014;1247;70588;-68
2022/09/05 07:18:48;;;;;;;2.50;2.00;;;;;;;22.87;51.68;98186.79;110000;1248;70191;-70
2022/09/05 07:22:12;;;;;;;3.20;2.50;;;;;;;22.80;51.37;98189.95;109783;1247;58922;-68
2022/09/05 07:25:24;;;;;;;3.80;2.00;;;;;;;22.57;51.01;98188.53;110044;1247;58946;-68
2022/09/05 07:28:19;;;;;;;2.70;2.20;;;;;;;22.33;51.39;98188.95;110063;1247;69837;-68
2022/09/05 07:31:27;;;;;;;3.40;2.70;;;;;;;21.89;52.03;98180.22;110057;1247;68458;-68
2022/09/05 07:34:31;;;;;;;4.30;2.60;;;;;;;21.50;53.26;98182.42;110028;1246;70508;-69
2022/09/05 07:37:34;;;;;;;3.70;2.90;;;;;;;21.48;55.89;98183.04;109988;1247;58840;-69
2022/09/05 07:40:22;;;;;;;4.00;3.20;;;;;;;21.75;54.12;98175.80;110003;1247;58931;-68
2022/09/05 07:43:25;;;;;;;4.50;3.10;;;;;;;21.67;53.34;98181.61;110011;1247;71610;-69
2022/09/05 07:46:16;;;;;;;4.50;3.60;;;;;;;20.82;55.53;98190.84;110046;1247;70188;-68
2022/09/05 07:49:17;;;;;;;3.80;2.90;;;;;;;21.03;55.59;98193.34;110018;1247;70331;-70
2022/09/05 07:52:18;;;;;;;4.00;3.20;;;;;;;21.16;55.25;98191.96;110076;1247;58909;-68
2022/09/05 07:55:29;;;;;;;3.60;2.80;;;;;;;21.11;55.76;98192.85;110082;1246;58815;-67
2022/09/05 07:58:57;;;;;;;3.70;2.90;;;;;;;21.10;55.92;98189.71;110057;1247;70175;-70
2022/09/05 08:01:47;;;;;;;4.60;3.50;;;;;;;21.24;55.20;98193.11;110069;1247;70162;-69
2022/09/05 08:04:36;;;;;;;4.40;2.90;;;;;;;20.91;56.32;98193.02;110025;1247;69080;-67
2022/09/05 08:07:30;;;;;;;5.80;3.30;;;;;;;21.05;56.33;98193.48;110044;1247;58948;-67
2022/09/05 08:10:45;;;;;;;3.30;2.90;;;;;;;21.04;56.31;98182.84;110037;1247;59275;-68
2022/09/05 08:14:39;;;;;;;4.30;3.20;;;;;;;21.01;56.18;98184.02;110030;1247;71648;-68
2022/09/05 08:17:34;;;;;;;3.80;3.20;;;;;;;21.13;55.81;98184.31;109757;1248;68679;-68
2022/09/05 08:20:55;;;;;;;3.80;2.80;;;;;;;20.81;55.76;98187.79;110021;1247;68678;-68
2022/09/05 08:24:16;;;;;;;3.10;2.40;;;;;;;20.90;57.08;98189.85;109980;1247;58929;-68
2022/09/05 08:27:24;;;;;;;3.90;2.90;;;;;;;20.98;56.59;98185.34;110035;1247;58891;-69
2022/09/05 08:30:11;;;;;;;4.60;3.50;;;;;;;20.82;57.22;98181.36;110109;1247;71595;-68
2022/09/05 08:33:19;;;;;;;4.30;3.50;;;;;;;20.87;57.87;98183.36;110062;1248;68509;-68
2022/09/05 08:36:40;;;;;;;4.80;3.30;;;;;;;20.79;57.16;98181.05;110056;1248;69489;-68
2022/09/05 08:39:30;;;;;;;3.80;3.20;;;;;;;20.78;57.03;98177.16;110053;1246;58859;-69
2022/09/05 08:42:16;;;;;;;4.00;3.00;;;;;;;20.93;57.37;98180.06;110057;1247;58960;-68
2022/09/05 08:45:29;;;;;;;4.20;3.00;;;;;;;21.06;57.02;98185.58;110046;1247;71583;-68
2022/09/05 08:48:50;;;;;;;4.60;3.00;;;;;;;21.18;57.05;98181.32;110043;1247;70144;-68
2022/09/05 08:51:54;;;;;;;3.20;2.50;;;;;;;21.59;56.20;98178.22;109999;1247;70183;-70
2022/09/05 08:55:12;;;;;;;4.50;3.60;;;;;;;22.13;55.84;98181.22;110015;1247;58900;-69
2022/09/05 08:58:40;;;;;;;3.80;3.00;;;;;;;22.43;53.62;98184.35;109978;1248;58886;-69
2022/09/05 09:02:01;;;;;;;4.00;3.10;;;;;;;22.29;53.48;98184.25;109311;1256;70336;-70
2022/09/05 09:05:32;;;;;;;3.90;2.80;;;;;;;22.22;53.22;98181.30;109294;1250;70296;-67
2022/09/05 09:09:02;;;;;;;6.00;2.70;;;;;;;22.58;52.06;98185.36;110020;1246;70275;-69
2022/09/05 09:12:07;;;;;;;3.60;2.70;;;;;;;22.93;52.58;98184.88;110016;1246;58928;-69
2022/09/05 09:15:01;;;;;;;5.40;3.20;;;;;;;23.12;52.14;98182.73;110044;1247;58842;-70
2022/09/05 09:17:49;;;;;;;4.40;2.70;;;;;;;22.96;51.70;98183.30;110060;1247;71555;-69
2022/09/05 09:20:58;;;;;;;4.30;2.70;;;;;;;23.01;52.08;98181.80;110070;1247;70151;-70
2022/09/05 09:23:57;;;;;;;3.60;2.90;;;;;;;22.58;52.16;98180.97;110031;1247;70220;-69
2022/09/05 09:26:58;;;;;;;3.10;2.70;;;;;;;22.40;52.21;98177.06;109999;1247;58948;-69
2022/09/05 09:29:45;;;;;;;3.90;2.50;;;;;;;22.14;52.39;98175.42;110056;1247;58885;-68
2022/09/05 09:32:43;;;;;;;3.70;2.50;;;;;;;22.51;52.83;98174.09;110028;1247;71597;-68
2022/09/05 09:36:03;;;;;;;2.70;2.30;;;;;;;22.71;51.52;98169.32;110052;1247;70224;-68
2022/09/05 09:39:17;;;;;;;3.10;2.40;;;;;;;23.35;49.94;98159.52;110058;1247;70268;-70
2022/09/05 09:42:44;;;;;;;3.50;2.80;;;;;;;24.56;48.46;98157.21;110030;1247;58950;-71
2022/09/05 09:45:52;;;;;;;2.70;2.20;;;;;;;25.18;45.67;98157.60;110040;1247;58899;-71
2022/09/05 09:48:50;;;;;;;3.40;2.80;;;;;;;25.16;45.76;98157.36;110046;1246;71586;-71
2022/09/05 09:51:51;;;;;;;4.40;2.70;;;;;;;25.59;45.45;98163.27;110067;1247;71128;-70
2022/09/05 09:55:00;;;;;;;3.60;2.90;;;;;;;26.10;45.24;98156.44;110103;1247;70687;-69
2022/09/05 09:58:03;;;;;;;3.30;2.80;;;;;;;26.57;43.46;98151.02;110095;1247;58883;-71
2022/09/05 10:00:59;;;;;;;3.20;2.50;;;;;;;25.85;43.66;98149.77;110034;1247;58910;-71
2022/09/05 10:03:56;;;;;;;3.30;2.20;;;;;;;25.49;44.52;98151.00;110062;1247;71529;-70
2022/09/05 10:07:27;;;;;;;5.00;3.10;;;;;;;25.42;44.64;98151.59;110035;1247;70239;-69
2022/09/05 10:10:52;;;;;;;2.80;2.20;;;;;;;26.02;43.95;98147.88;110019;1247;70260;-70
2022/09/05 10:14:22;;;;;;;3.30;2.40;;;;;;;26.16;42.07;98143.02;110103;1247;58902;-69
2022/09/05 10:17:53;;;;;;;3.30;2.50;;;;;;;26.18;43.05;98142.27;110493;1247;58889;-68
2022/09/05 10:21:13;;;;;;;3.70;2.50;;;;;;;26.65;42.31;98138.30;110078;1247;71552;-69
2022/09/05 10:24:29;;;;;;;3.90;2.70;;;;;;;27.13;41.30;98129.48;110072;1247;69351;-69
2022/09/05 10:27:18;;;;;;;2.60;2.10;;;;;;;27.37;42.85;98126.02;109993;1247;70304;-69
2022/09/05 10:30:30;;;;;;;3.30;2.50;;;;;;;28.18;40.13;98124.48;109976;1248;58895;-69
2022/09/05 10:33:45;;;;;;;2.90;2.40;;;;;;;27.47;40.18;98121.41;109976;1247;58882;-69
2022/09/05 10:36:58;;;;;;;3.60;2.50;;;;;;;26.85;40.81;98121.02;110051;1247;70533;-69
2022/09/05 10:39:50;;;;;;;2.00;1.80;;;;;;;26.53;42.02;98118.30;110020;1247;68533;-67
2022/09/05 10:42:44;;;;;;;2.30;2.00;;;;;;;26.28;41.95;98113.45;110044;1246;70305;-68
2022/09/05 10:45:54;;;;;;;2.70;2.00;;;;;;;26.62;42.89;98108.79;110057;1247;58951;-69
2022/09/05 10:48:53;;;;;;;2.60;2.20;;;;;;;27.74;38.93;98103.34;110068;1247;58891;-70
2022/09/05 10:51:54;;;;;;;2.60;1.90;;;;;;;28.39;40.16;98103.73;110100;1247;71558;-68
2022/09/05 10:55:20;;;;;;;2.50;1.90;;;;;;;29.15;37.07;98099.70;110091;1247;68471;-69
2022/09/05 10:58:33;;;;;;;1.30;1.10;;;;;;;30.03;34.82;98094.70;109980;1248;69131;-69
2022/09/05 11:02:00;;;;;;;1.40;1.20;;;;;;;30.46;32.16;98096.80;109986;1247;58869;-70
2022/09/05 11:05:33;;;;;;;1.20;1.10;;;;;;;29.90;31.52;98088.13;110022;1247;58933;-70
2022/09/05 11:08:24;;;;;;;1.70;1.20;;;;;;;30.01;32.30;98092.16;109984;1247;69833;-69
2022/09/05 11:11:11;;;;;;;2.00;1.30;;;;;;;30.20;32.13;98094.29;110002;1247;70144;-70
2022/09/05 11:14:48;;;;;;;1.30;1.20;;;;;;;30.61;31.48;98092.39;110044;1247;69224;-70
2022/09/05 11:17:37;;;;;;;2.10;1.40;;;;;;;30.83;31.59;98095.95;110068;1247;58871;-70
2022/09/05 11:20:29;;;;;;;2.00;1.60;;;;;;;30.94;31.30;98085.40;110065;1248;58872;-70
2022/09/05 11:23:38;;;;;;;2.00;1.30;;;;;;;31.44;31.41;98082.13;110039;1247;69752;-69
2022/09/05 11:26:28;;;;;;;2.20;1.40;;;;;;;30.80;29.61;98079.95;110027;1247;70135;-70
2022/09/05 11:29:23;;;;;;;2.50;2.10;;;;;;;30.62;30.13;98078.41;110073;1245;68638;-69
2022/09/05 11:32:29;;;;;;;2.20;1.70;;;;;;;30.31;30.86;98075.55;110035;1247;58873;-71
2022/09/05 11:35:50;;;;;;;2.50;2.10;;;;;;;29.58;31.61;98073.07;110061;1247;58896;-68
2022/09/05 11:39:12;;;;;;;1.50;1.20;;;;;;;30.16;32.24;98076.06;109985;1247;71600;-70
2022/09/05 11:42:48;;;;;;;2.70;1.40;;;;;;;31.59;31.40;98061.55;110038;1247;68460;-69
2022/09/05 11:46:11;;;;;;;2.00;1.50;;;;;;;31.11;29.94;98066.64;110023;1247;68993;-68
2022/09/05 11:49:24;;;;;;;4.00;1.90;;;;;;;31.94;29.08;98059.88;110002;1247;58932;-70
2022/09/05 11:52:41;;;;;;;2.30;1.50;;;;;;;31.15;29.57;98057.65;110049;1247;58950;-70
2022/09/05 11:55:36;;;;;;;;;;;;;;;30.70;29.08;98058.95;110151;1247;69916;-69
2022/09/05 11:58:41;;;;;;;2.40;1.30;;;;;;;30.16;30.05;98054.90;110066;1247;68452;-71
2022/09/05 12:01:42;;;;;;;1.80;1.40;;;;;;;30.14;30.38;98057.11;110136;1248;68570;-70
2022/09/05 12:04:28;;;;;;;1.70;1.40;;;;;;;30.78;29.94;98053.70;110153;1247;58942;-70
2022/09/05 12:07:28;;;;;;;1.90;1.20;;;;;;;31.22;29.57;98047.30;110073;1247;58876;-70
2022/09/05 12:10:23;;;;;;;1.60;1.50;;;;;;;31.80;29.45;98045.77;110094;1247;69808;-71
2022/09/05 12:13:41;;;;;;;2.80;1.40;;;;;;;31.60;29.13;98043.46;110099;1247;68485;-71
2022/09/05 12:16:49;;;;;;;2.20;1.70;;;;;;;30.99;29.12;98040.70;110101;1247;70693;-68
2022/09/05 12:19:56;;;;;;;1.60;1.50;;;;;;;30.42;29.33;98041.95;110086;1248;58935;-71
2022/09/05 12:22:58;;;;;;;5.10;2.00;;;;;;;29.89;31.58;98040.09;110081;1247;58880;-69
2022/09/05 12:26:09;;;;;;;1.50;1.20;;;;;;;30.24;31.84;98040.97;109810;1249;70845;-68
2022/09/05 12:29:22;;;;;;;2.10;1.50;;;;;;;28.67;32.34;98031.48;108696;1247;1736141;-69
2022/09/05 12:32:24;;;;;;;1.60;1.40;;;;;;;29.40;32.43;98025.81;110055;1246;68580;-70
2022/09/05 12:35:48;;;;;;;1.60;1.20;;;;;;;30.13;32.04;98022.44;110157;1247;58942;-69
2022/09/05 12:39:13;;;;;;;2.00;1.20;;;;;;;29.81;32.82;98022.08;110050;1247;58898;-69
2022/09/05 12:42:32;;;;;;;3.60;1.70;;;;;;;28.90;32.42;98017.80;110103;1247;69878;-69
2022/09/05 12:45:56;;;;;;;2.10;1.40;;;;;;;28.20;33.48;98014.36;110048;1247;71329;-69
2022/09/05 12:48:54;;;;;;;2.20;1.50;;;;;;;28.61;34.97;98008.64;110025;1247;68525;-69
2022/09/05 12:51:53;;;;;;;2.00;1.60;;;;;;;28.40;34.23;98008.60;110002;1247;59709;-70
2022/09/05 12:54:47;;;;;;;2.10;1.70;;;;;;;28.58;34.86;98002.88;110023;1247;59703;-70
2022/09/05 12:57:34;;;;;;;1.90;1.70;;;;;;;28.75;34.18;98000.30;110194;1247;70629;-69
2022/09/05 13:00:44;;;;;;;2.40;1.50;;;;;;;29.43;33.29;98001.08;110097;1248;70629;-70
2022/09/05 13:04:17;;;;;;;2.00;1.40;;;;;;;29.67;32.23;97995.83;110252;1247;68560;-70
2022/09/05 13:07:10;;;;;;;1.70;1.30;;;;;;;30.03;31.58;97992.91;110137;1247;59752;-69
2022/09/05 13:10:01;;;;;;;1.20;1.10;;;;;;;30.48;31.30;97992.77;110184;1247;59698;-70
2022/09/05 13:13:46;;;;;;;4.10;2.60;;;;;;;30.68;30.70;97986.60;110013;1248;71332;-69
2022/09/05 13:16:54;;;;;;;1.90;1.40;;;;;;;31.14;29.71;97984.44;110153;1247;68744;-69
2022/09/05 13:19:49;;;;;;;2.00;1.30;;;;;;;31.01;29.90;97981.24;110094;1247;68523;-68
2022/09/05 13:22:38;;;;;;;1.60;1.30;;;;;;;31.07;29.21;97976.98;110081;1247;59683;-69
2022/09/05 13:25:35;;;;;;;1.50;1.20;;;;;;;31.26;29.79;97975.48;110084;1247;59751;-68
2022/09/05 13:28:34;;;;;;;1.90;1.30;;;;;;;31.09;29.50;97979.31;110114;1247;70726;-68
2022/09/05 13:32:04;;;;;;;2.30;1.60;;;;;;;31.00;30.05;97978.49;110098;1247;70141;-69
2022/09/05 13:35:26;;;;;;;2.30;1.30;;;;;;;30.55;30.30;97970.57;109481;1250;68589;-69
2022/09/05 13:38:43;;;;;;;1.70;1.40;;;;;;;30.62;30.34;97968.41;110134;1247;59759;-69
2022/09/05 13:41:41;;;;;;;1.90;1.20;;;;;;;30.03;32.62;97974.83;110109;1247;59703;-69
2022/09/05 13:44:28;;;;;;;1.80;1.30;;;;;;;29.59;32.12;97974.28;110179;1247;70677;-68
2022/09/05 13:47:44;;;;;;;1.50;1.20;;;;;;;28.69;32.60;97969.11;110231;1247;69506;-68
2022/09/05 13:50:36;;;;;;;1.60;1.10;;;;;;;28.21;34.12;97970.36;110144;1247;70280;-70
2022/09/05 13:53:35;;;;;;;1.20;1.10;;;;;;;27.96;35.09;97974.55;110167;1247;60157;-68
2022/09/05 13:56:34;;;;;;;1.40;1.30;;;;;;;27.76;35.27;97971.63;110117;1247;59703;-70
2022/09/05 13:59:23;;;;;;;1.60;1.30;;;;;;;27.60;35.70;97970.48;110159;1247;72407;-68
2022/09/05 14:02:49;;;;;;;2.10;1.70;;;;;;;27.45;36.60;97969.83;110117;1247;68662;-69
2022/09/05 14:06:29;;;;;;;1.60;1.40;;;;;;;27.11;37.77;97969.22;110210;1247;69430;-69
2022/09/05 14:09:51;;;;;;;1.90;1.70;;;;;;;26.62;38.05;97970.04;110027;1247;59653;-70
2022/09/05 14:12:43;;;;;;;1.80;1.50;;;;;;;26.10;39.79;97977.33;110469;1247;60863;-68
2022/09/05 14:15:38;;;;;;;3.90;2.10;;;;;;;25.75;40.37;97977.29;110241;1247;72399;-69
2022/09/05 14:21:14;;;;;;;2.30;1.70;;;;;;;25.66;40.91;97976.91;110126;1247;68470;-69
2022/09/05 14:21:44;;;;;;;;;;;;;;;25.42;41.70;97978.02;110106;1247;70247;-68
2022/09/05 14:24:35;;;;;;;3.10;1.90;;;;;;;25.20;40.90;97982.91;110161;1247;59694;-68
2022/09/05 14:27:22;;;;;;;2.30;2.00;;;;;;;25.01;41.61;97984.61;110223;1247;59644;-69
2022/09/05 14:30:50;;;;;;;2.60;1.90;;;;;;;24.74;42.12;97980.00;110129;1249;69597;-69
2022/09/05 14:34:20;;;;;;;1.90;1.60;;;;;;;24.51;43.51;97987.15;110091;1248;69336;-68
2022/09/05 14:37:28;;;;;;;2.80;1.80;;;;;;;24.35;43.78;97987.48;109913;1250;68613;-69
2022/09/05 14:40:48;;;;;;;2.10;1.80;;;;;;;24.12;44.34;97992.87;110098;1247;59680;-69